Airfield :
LOGIN :

Register | Disclaimer

   EN    FR    IT 

 










Legend :    VFR   Marginal VFR   IFR   Intensive IFR   Very Intensive IFR
Visi :
Ceiling :
>= 8 km
>= 3000ft
5 to 8 km
1000 to 3000 ft
1500m to 5 km
500 to 1000 ft
800 to 1500m
200 to 500 ft
< 800m
< 200 ft
Symbols :   Thunderstorms  Fog  Heavy snow  Heavy precipitations  Wind > 20 kt
SIGMETs :     Misc.  Thunderstorms  Icing  Turbulence  Mountain Waves  Volcanic Ashes






- Airport Elevation : 3368 ft


LSGC - Les Eplatures

CURRENT METAR :
  • 181950Z AUTO 04006KT 9999 BKN023 M01/M03 Q1025

EXPIRED METARs :
  • 181920Z AUTO 03005KT 9999 FEW007 BKN009 BKN011 M02/M03 Q1025
  • 181850Z AUTO 02003KT 350V060 9999 FEW007 SCT012 BKN025 M02/M03 Q1025
  • 181820Z AUTO VRB01KT 9999 FEW007 M02/M04 Q1025
  • 181750Z AUTO VRB01KT 9999 BKN009 BKN011 M03/M04 Q1025
  • 181720Z AUTO VRB01KT 9999 FEW013 M03/M04 Q1025

TAF TAF LSGC
Valid from the 18 at 15:00 until the 19 at 00:00 UTC


181425Z 1815/1824 25005KT 9999 SCT020
BECMG 1818/1820 05010KT



MET'MAP, your aeronautical weather chart ! - Copyright ORBIFLY December 2007 - Disclaimer

ORBIFLY MET'MAP TEAM :

Programming & Development : Alexandra Zaïnal
Concept & original design : Baudouin d'Aumeries
Assistance for programming : Marc-Olivier Méhu
Technical & hardware support : Manuel Goepfert

Contact : metmap@orbifly.com




SOURCES & CREDITS :

   NOAA